sensor_id;sensor_type;location;lat;lon;timestamp;pressure;altitude;pressure_sealevel;temperature;humidity
18275;BME280;19470;49.322;7.218;2024-02-14T00:32:45;99034.25;;;11.62;78.05
18275;BME280;19470;49.322;7.218;2024-02-14T00:35:12;99036.66;;;11.18;79.31
18275;BME280;19470;49.322;7.218;2024-02-14T00:37:39;99039.63;;;11.21;79.55
18275;BME280;19470;49.322;7.218;2024-02-14T00:47:02;99041.13;;;11.46;76.99
18275;BME280;19470;49.322;7.218;2024-02-14T00:49:30;99035.78;;;11.74;76.52
18275;BME280;19470;49.322;7.218;2024-02-14T00:51:57;99038.56;;;11.34;77.48
18275;BME280;19470;49.322;7.218;2024-02-14T00:54:23;99047.19;;;11.58;77.24
18275;BME280;19470;49.322;7.218;2024-02-14T00:56:50;99041.63;;;12.05;74.80
18275;BME280;19470;49.322;7.218;2024-02-14T01:06:14;99043.97;;;12.01;74.99
18275;BME280;19470;49.322;7.218;2024-02-14T01:08:41;99028.50;;;11.82;76.10
18275;BME280;19470;49.322;7.218;2024-02-14T01:11:09;99028.38;;;11.60;76.95
18275;BME280;19470;49.322;7.218;2024-02-14T01:15:52;99027.00;;;11.57;76.50
18275;BME280;19470;49.322;7.218;2024-02-14T01:20:22;99026.50;;;11.89;75.57
18275;BME280;19470;49.322;7.218;2024-02-14T01:22:50;99018.50;;;12.22;74.48
18275;BME280;19470;49.322;7.218;2024-02-14T01:25:17;99023.13;;;11.93;75.11
18275;BME280;19470;49.322;7.218;2024-02-14T01:27:44;99014.09;;;12.28;73.56
18275;BME280;19470;49.322;7.218;2024-02-14T01:40:01;99015.09;;;12.05;75.06
18275;BME280;19470;49.322;7.218;2024-02-14T01:42:28;99004.28;;;12.28;74.01
18275;BME280;19470;49.322;7.218;2024-02-14T01:44:55;99005.94;;;11.96;75.24
18275;BME280;19470;49.322;7.218;2024-02-14T01:47:21;99006.41;;;11.93;75.14
18275;BME280;19470;49.322;7.218;2024-02-14T01:49:48;98998.91;;;11.90;75.69
18275;BME280;19470;49.322;7.218;2024-02-14T01:52:15;99003.41;;;11.72;76.62
18275;BME280;19470;49.322;7.218;2024-02-14T01:54:54;99007.84;;;11.84;76.33
18275;BME280;19470;49.322;7.218;2024-02-14T01:57:23;98999.75;;;11.62;77.53
18275;BME280;19470;49.322;7.218;2024-02-14T01:59:51;99004.94;;;12.02;75.74
18275;BME280;19470;49.322;7.218;2024-02-14T02:02:20;99009.13;;;11.98;75.70
18275;BME280;19470;49.322;7.218;2024-02-14T02:05:04;99002.03;;;12.03;75.52
18275;BME280;19470;49.322;7.218;2024-02-14T02:21:57;98985.47;;;11.80;76.91
18275;BME280;19470;49.322;7.218;2024-02-14T02:24:25;98996.88;;;11.63;77.83
18275;BME280;19470;49.322;7.218;2024-02-14T02:26:52;98995.47;;;12.06;76.08
18275;BME280;19470;49.322;7.218;2024-02-14T02:29:23;98999.94;;;12.22;75.11
18275;BME280;19470;49.322;7.218;2024-02-14T02:35:17;98996.00;;;11.74;77.28
18275;BME280;19470;49.322;7.218;2024-02-14T02:41:09;98996.81;;;12.09;77.24
18275;BME280;19470;49.322;7.218;2024-02-14T02:43:35;98994.00;;;12.37;75.70
18275;BME280;19470;49.322;7.218;2024-02-14T02:46:02;98990.69;;;11.58;78.51
18275;BME280;19470;49.322;7.218;2024-02-14T02:55:21;98992.88;;;11.77;79.06
18275;BME280;19470;49.322;7.218;2024-02-14T02:57:49;98993.34;;;11.74;79.57
18275;BME280;19470;49.322;7.218;2024-02-14T03:00:18;98983.84;;;12.12;76.74
18275;BME280;19470;49.322;7.218;2024-02-14T03:06:00;98992.38;;;11.81;77.56
18275;BME280;19470;49.322;7.218;2024-02-14T03:28:50;99001.31;;;11.74;78.57
18275;BME280;19470;49.322;7.218;2024-02-14T03:31:18;99003.22;;;11.79;77.71
18275;BME280;19470;49.322;7.218;2024-02-14T03:33:46;99000.47;;;12.63;74.53
18275;BME280;19470;49.322;7.218;2024-02-14T03:36:18;99007.59;;;12.58;74.50
18275;BME280;19470;49.322;7.218;2024-02-14T03:38:59;99010.06;;;12.09;75.93
18275;BME280;19470;49.322;7.218;2024-02-14T03:41:29;99019.50;;;11.83;78.06
18275;BME280;19470;49.322;7.218;2024-02-14T03:43:57;99015.25;;;12.15;75.62
18275;BME280;19470;49.322;7.218;2024-02-14T03:46:26;99009.88;;;12.32;75.61
18275;BME280;19470;49.322;7.218;2024-02-14T03:48:56;99013.84;;;12.30;77.46
18275;BME280;19470;49.322;7.218;2024-02-14T03:51:37;99016.50;;;11.62;82.08
18275;BME280;19470;49.322;7.218;2024-02-14T03:54:58;99029.72;;;12.08;81.05
18275;BME280;19470;49.322;7.218;2024-02-14T03:57:34;99013.69;;;12.58;78.57
18275;BME280;19470;49.322;7.218;2024-02-14T04:00:06;99028.25;;;12.34;80.10
18275;BME280;19470;49.322;7.218;2024-02-14T04:02:43;99039.53;;;12.24;81.16
18275;BME280;19470;49.322;7.218;2024-02-14T04:29:33;99046.94;;;11.88;92.38
18275;BME280;19470;49.322;7.218;2024-02-14T04:32:00;99045.94;;;11.32;96.09
18275;BME280;19470;49.322;7.218;2024-02-14T04:34:27;99049.84;;;11.58;96.15
18275;BME280;19470;49.322;7.218;2024-02-14T04:37:07;99045.72;;;11.50;96.73
18275;BME280;19470;49.322;7.218;2024-02-14T04:39:53;99042.63;;;11.25;97.43
18275;BME280;19470;49.322;7.218;2024-02-14T04:42:40;99050.69;;;11.47;99.36
18275;BME280;19470;49.322;7.218;2024-02-14T04:45:33;99051.56;;;11.36;97.78
18275;BME280;19470;49.322;7.218;2024-02-14T04:48:04;99057.63;;;11.48;97.26
18275;BME280;19470;49.322;7.218;2024-02-14T04:50:33;99053.41;;;11.35;97.59
18275;BME280;19470;49.322;7.218;2024-02-14T04:59:32;99049.22;;;11.68;96.72
18275;BME280;19470;49.322;7.218;2024-02-14T05:02:00;99050.91;;;11.74;96.06
18275;BME280;19470;49.322;7.218;2024-02-14T05:04:27;99056.59;;;11.66;96.67
18275;BME280;19470;49.322;7.218;2024-02-14T05:09:01;99057.03;;;11.74;96.66
18275;BME280;19470;49.322;7.218;2024-02-14T05:16:42;99065.88;;;11.06;100.00
18275;BME280;19470;49.322;7.218;2024-02-14T05:29:25;99065.06;;;11.63;100.00
18275;BME280;19470;49.322;7.218;2024-02-14T05:31:51;99069.66;;;11.39;100.00
18275;BME280;19470;49.322;7.218;2024-02-14T05:34:20;99057.59;;;11.76;100.00
18275;BME280;19470;49.322;7.218;2024-02-14T05:36:50;99066.50;;;11.70;100.00
18275;BME280;19470;49.322;7.218;2024-02-14T06:03:43;99061.34;;;11.64;100.00
18275;BME280;19470;49.322;7.218;2024-02-14T06:06:09;99070.16;;;11.81;100.00
18275;BME280;19470;49.322;7.218;2024-02-14T06:10:30;99064.44;;;11.72;100.00
18275;BME280;19470;49.322;7.218;2024-02-14T06:12:14;99063.13;;;11.58;100.00
18275;BME280;19470;49.322;7.218;2024-02-14T06:14:41;99065.38;;;11.66;100.00
18275;BME280;19470;49.322;7.218;2024-02-14T06:17:07;99072.38;;;11.72;100.00
18275;BME280;19470;49.322;7.218;2024-02-14T06:19:35;99067.47;;;11.64;100.00
18275;BME280;19470;49.322;7.218;2024-02-14T06:22:04;99075.97;;;11.95;100.00
18275;BME280;19470;49.322;7.218;2024-02-14T06:24:30;99076.84;;;11.84;100.00
18275;BME280;19470;49.322;7.218;2024-02-14T06:26:57;99079.25;;;11.57;100.00
18275;BME280;19470;49.322;7.218;2024-02-14T06:29:24;99068.16;;;11.88;100.00
18275;BME280;19470;49.322;7.218;2024-02-14T06:31:50;99071.84;;;12.04;100.00
18275;BME280;19470;49.322;7.218;2024-02-14T06:34:17;99077.88;;;11.99;100.00
18275;BME280;19470;49.322;7.218;2024-02-14T06:36:46;99081.88;;;11.68;100.00
18275;BME280;19470;49.322;7.218;2024-02-14T06:39:13;99079.28;;;12.02;97.84
18275;BME280;19470;49.322;7.218;2024-02-14T06:41:40;99080.88;;;11.58;100.00
18275;BME280;19470;49.322;7.218;2024-02-14T06:44:06;99079.41;;;11.50;100.00
18275;BME280;19470;49.322;7.218;2024-02-14T06:46:33;99086.66;;;11.83;100.00
18275;BME280;19470;49.322;7.218;2024-02-14T06:49:01;99082.91;;;11.67;100.00
18275;BME280;19470;49.322;7.218;2024-02-14T06:51:28;99084.72;;;11.50;100.00
18275;BME280;19470;49.322;7.218;2024-02-14T06:53:57;99092.63;;;12.24;99.08
18275;BME280;19470;49.322;7.218;2024-02-14T06:56:23;99090.13;;;12.17;99.17
18275;BME280;19470;49.322;7.218;2024-02-14T06:58:50;99102.91;;;11.87;100.00
18275;BME280;19470;49.322;7.218;2024-02-14T07:01:18;99099.06;;;12.11;98.85
18275;BME280;19470;49.322;7.218;2024-02-14T07:03:47;99112.91;;;12.13;99.25
18275;BME280;19470;49.322;7.218;2024-02-14T07:06:13;99111.44;;;12.22;98.30
18275;BME280;19470;49.322;7.218;2024-02-14T07:08:40;99116.13;;;12.49;97.14
18275;BME280;19470;49.322;7.218;2024-02-14T07:11:08;99117.00;;;12.21;98.84
18275;BME280;19470;49.322;7.218;2024-02-14T07:13:35;99115.78;;;12.45;96.88
18275;BME280;19470;49.322;7.218;2024-02-14T07:16:01;99120.78;;;12.42;96.73
18275;BME280;19470;49.322;7.218;2024-02-14T07:18:27;99120.31;;;12.28;98.88
18275;BME280;19470;49.322;7.218;2024-02-14T07:20:54;99129.16;;;12.00;100.00
18275;BME280;19470;49.322;7.218;2024-02-14T07:23:20;99135.59;;;12.21;100.00
18275;BME280;19470;49.322;7.218;2024-02-14T07:25:47;99129.94;;;12.17;99.63
18275;BME280;19470;49.322;7.218;2024-02-14T07:28:15;99121.34;;;12.27;99.77
18275;BME280;19470;49.322;7.218;2024-02-14T07:30:42;99120.34;;;11.99;100.00
18275;BME280;19470;49.322;7.218;2024-02-14T07:33:09;99126.00;;;12.03;100.00
18275;BME280;19470;49.322;7.218;2024-02-14T07:35:38;99120.53;;;11.93;100.00
18275;BME280;19470;49.322;7.218;2024-02-14T07:38:05;99130.44;;;12.14;100.00
18275;BME280;19470;49.322;7.218;2024-02-14T07:40:32;99128.53;;;12.43;100.00
18275;BME280;19470;49.322;7.218;2024-02-14T07:42:59;99132.69;;;12.39;100.00
18275;BME280;19470;49.322;7.218;2024-02-14T07:45:27;99130.25;;;12.04;100.00
18275;BME280;19470;49.322;7.218;2024-02-14T07:47:54;99131.09;;;12.21;100.00
18275;BME280;19470;49.322;7.218;2024-02-14T07:50:20;99128.50;;;12.26;100.00
18275;BME280;19470;49.322;7.218;2024-02-14T07:52:47;99131.97;;;12.44;100.00
18275;BME280;19470;49.322;7.218;2024-02-14T07:55:13;99135.50;;;12.33;100.00
18275;BME280;19470;49.322;7.218;2024-02-14T07:57:41;99143.06;;;12.07;100.00
18275;BME280;19470;49.322;7.218;2024-02-14T08:00:09;99147.41;;;11.96;100.00
18275;BME280;19470;49.322;7.218;2024-02-14T08:02:37;99147.53;;;11.90;100.00
18275;BME280;19470;49.322;7.218;2024-02-14T08:05:04;99148.00;;;12.15;100.00
18275;BME280;19470;49.322;7.218;2024-02-14T08:07:31;99143.47;;;12.49;100.00
18275;BME280;19470;49.322;7.218;2024-02-14T08:09:58;99144.28;;;12.67;99.05
18275;BME280;19470;49.322;7.218;2024-02-14T08:12:24;99144.28;;;12.16;100.00
18275;BME280;19470;49.322;7.218;2024-02-14T08:14:52;99137.69;;;12.52;100.00
18275;BME280;19470;49.322;7.218;2024-02-14T08:17:18;99133.97;;;12.37;100.00
18275;BME280;19470;49.322;7.218;2024-02-14T08:19:47;99128.41;;;12.55;100.00
18275;BME280;19470;49.322;7.218;2024-02-14T08:22:15;99125.63;;;12.62;100.00
18275;BME280;19470;49.322;7.218;2024-02-14T08:24:41;99131.66;;;12.96;97.07
18275;BME280;19470;49.322;7.218;2024-02-14T08:27:08;99129.28;;;12.61;100.00
18275;BME280;19470;49.322;7.218;2024-02-14T08:29:34;99134.78;;;12.71;99.89
18275;BME280;19470;49.322;7.218;2024-02-14T08:32:01;99129.94;;;12.68;98.00
18275;BME280;19470;49.322;7.218;2024-02-14T08:34:28;99136.88;;;12.35;100.00
18275;BME280;19470;49.322;7.218;2024-02-14T08:36:56;99137.84;;;12.29;100.00
18275;BME280;19470;49.322;7.218;2024-02-14T08:39:23;99137.69;;;12.36;100.00
18275;BME280;19470;49.322;7.218;2024-02-14T08:41:49;99137.22;;;12.39;100.00
18275;BME280;19470;49.322;7.218;2024-02-14T08:44:16;99142.84;;;12.42;100.00
18275;BME280;19470;49.322;7.218;2024-02-14T08:46:45;99145.22;;;12.77;98.99
18275;BME280;19470;49.322;7.218;2024-02-14T08:49:13;99151.28;;;12.56;99.81
18275;BME280;19470;49.322;7.218;2024-02-14T08:51:40;99145.09;;;12.17;100.00
18275;BME280;19470;49.322;7.218;2024-02-14T08:54:10;99134.78;;;12.54;100.00
18275;BME280;19470;49.322;7.218;2024-02-14T08:56:37;99143.81;;;12.53;100.00
18275;BME280;19470;49.322;7.218;2024-02-14T08:59:05;99149.41;;;12.23;100.00
18275;BME280;19470;49.322;7.218;2024-02-14T09:01:32;99143.97;;;12.63;100.00
18275;BME280;19470;49.322;7.218;2024-02-14T09:03:59;99141.69;;;12.55;100.00
18275;BME280;19470;49.322;7.218;2024-02-14T09:06:26;99147.75;;;12.50;100.00
18275;BME280;19470;49.322;7.218;2024-02-14T09:08:52;99147.13;;;12.43;100.00
18275;BME280;19470;49.322;7.218;2024-02-14T09:11:21;99148.66;;;12.95;100.00
18275;BME280;19470;49.322;7.218;2024-02-14T09:13:48;99151.03;;;12.74;100.00
18275;BME280;19470;49.322;7.218;2024-02-14T09:16:18;99150.66;;;13.04;100.00
18275;BME280;19470;49.322;7.218;2024-02-14T09:18:47;99150.91;;;13.69;96.29
18275;BME280;19470;49.322;7.218;2024-02-14T09:21:13;99149.63;;;13.49;96.17
18275;BME280;19470;49.322;7.218;2024-02-14T09:23:40;99158.34;;;13.45;98.08
18275;BME280;19470;49.322;7.218;2024-02-14T09:26:07;99152.72;;;13.63;96.54
18275;BME280;19470;49.322;7.218;2024-02-14T09:28:35;99158.44;;;13.28;99.05
18275;BME280;19470;49.322;7.218;2024-02-14T09:31:01;99168.41;;;12.65;100.00
18275;BME280;19470;49.322;7.218;2024-02-14T09:33:29;99176.16;;;12.50;100.00
18275;BME280;19470;49.322;7.218;2024-02-14T09:35:56;99173.13;;;13.36;99.69
18275;BME280;19470;49.322;7.218;2024-02-14T09:38:22;99176.06;;;12.78;100.00
18275;BME280;19470;49.322;7.218;2024-02-14T09:40:49;99169.00;;;12.67;100.00
18275;BME280;19470;49.322;7.218;2024-02-14T09:43:25;99175.53;;;12.98;100.00
18275;BME280;19470;49.322;7.218;2024-02-14T09:45:56;99176.03;;;12.57;100.00
18275;BME280;19470;49.322;7.218;2024-02-14T09:48:23;99176.78;;;13.29;100.00
18275;BME280;19470;49.322;7.218;2024-02-14T09:50:52;99174.03;;;13.41;99.66
18275;BME280;19470;49.322;7.218;2024-02-14T09:53:19;99171.38;;;13.68;98.63
18275;BME280;19470;49.322;7.218;2024-02-14T09:55:46;99174.25;;;13.40;98.71
18275;BME280;19470;49.322;7.218;2024-02-14T09:58:13;99185.91;;;13.34;100.00
18275;BME280;19470;49.322;7.218;2024-02-14T10:00:40;99190.41;;;12.94;100.00
18275;BME280;19470;49.322;7.218;2024-02-14T10:03:08;99181.19;;;13.63;97.97
18275;BME280;19470;49.322;7.218;2024-02-14T10:05:35;99175.44;;;13.71;97.46
18275;BME280;19470;49.322;7.218;2024-02-14T10:08:01;99174.34;;;13.94;96.10
18275;BME280;19470;49.322;7.218;2024-02-14T10:10:28;99183.41;;;13.49;99.03
18275;BME280;19470;49.322;7.218;2024-02-14T10:12:55;99190.66;;;13.53;100.00
18275;BME280;19470;49.322;7.218;2024-02-14T10:15:22;99193.28;;;13.97;98.55
18275;BME280;19470;49.322;7.218;2024-02-14T10:17:48;99194.13;;;13.54;100.00
18275;BME280;19470;49.322;7.218;2024-02-14T10:20:18;99204.69;;;13.49;100.00
18275;BME280;19470;49.322;7.218;2024-02-14T10:22:45;99198.53;;;13.65;100.00
18275;BME280;19470;49.322;7.218;2024-02-14T10:25:11;99201.03;;;13.77;100.00
18275;BME280;19470;49.322;7.218;2024-02-14T10:27:40;99213.50;;;13.71;100.00
18275;BME280;19470;49.322;7.218;2024-02-14T10:30:08;99210.66;;;13.56;100.00
18275;BME280;19470;49.322;7.218;2024-02-14T10:32:35;99197.56;;;13.76;100.00
18275;BME280;19470;49.322;7.218;2024-02-14T10:35:04;99202.63;;;13.78;99.64
18275;BME280;19470;49.322;7.218;2024-02-14T10:37:32;99211.03;;;13.92;97.83
18275;BME280;19470;49.322;7.218;2024-02-14T10:40:01;99217.84;;;14.31;96.16
18275;BME280;19470;49.322;7.218;2024-02-14T10:42:28;99209.09;;;14.09;100.00
18275;BME280;19470;49.322;7.218;2024-02-14T10:44:54;99208.56;;;14.39;97.38
18275;BME280;19470;49.322;7.218;2024-02-14T10:47:25;99211.50;;;13.40;100.00
18275;BME280;19470;49.322;7.218;2024-02-14T10:49:52;99212.81;;;13.59;100.00
18275;BME280;19470;49.322;7.218;2024-02-14T10:52:21;99211.50;;;13.84;100.00
18275;BME280;19470;49.322;7.218;2024-02-14T10:54:54;99211.72;;;14.31;95.44
18275;BME280;19470;49.322;7.218;2024-02-14T10:57:23;99207.69;;;13.74;99.12
18275;BME280;19470;49.322;7.218;2024-02-14T10:59:51;99211.78;;;13.87;100.00
18275;BME280;19470;49.322;7.218;2024-02-14T11:02:20;99211.22;;;14.07;99.25
18275;BME280;19470;49.322;7.218;2024-02-14T11:04:47;99207.25;;;14.10;97.59
18275;BME280;19470;49.322;7.218;2024-02-14T11:07:19;99208.75;;;14.27;96.07
18275;BME280;19470;49.322;7.218;2024-02-14T11:09:52;99207.63;;;14.23;97.01
18275;BME280;19470;49.322;7.218;2024-02-14T11:12:32;99211.63;;;14.48;96.41
18275;BME280;19470;49.322;7.218;2024-02-14T11:15:00;99214.59;;;14.51;95.21
18275;BME280;19470;49.322;7.218;2024-02-14T11:17:26;99211.50;;;14.38;96.29
18275;BME280;19470;49.322;7.218;2024-02-14T11:19:53;99209.66;;;14.70;94.53
18275;BME280;19470;49.322;7.218;2024-02-14T11:22:20;99209.59;;;14.60;93.49
18275;BME280;19470;49.322;7.218;2024-02-14T11:24:47;99206.78;;;14.45;95.03
18275;BME280;19470;49.322;7.218;2024-02-14T11:27:18;99204.91;;;14.45;94.19
18275;BME280;19470;49.322;7.218;2024-02-14T11:29:54;99202.13;;;14.62;95.06
18275;BME280;19470;49.322;7.218;2024-02-14T11:32:22;99201.16;;;14.14;98.45
18275;BME280;19470;49.322;7.218;2024-02-14T11:34:55;99189.50;;;14.20;96.96
18275;BME280;19470;49.322;7.218;2024-02-14T11:37:27;99190.50;;;14.14;98.26
18275;BME280;19470;49.322;7.218;2024-02-14T11:39:54;99197.81;;;14.29;99.54
18275;BME280;19470;49.322;7.218;2024-02-14T11:42:21;99197.88;;;14.61;97.82
18275;BME280;19470;49.322;7.218;2024-02-14T11:44:48;99192.50;;;14.56;98.19
18275;BME280;19470;49.322;7.218;2024-02-14T11:47:16;99191.19;;;14.31;100.00
18275;BME280;19470;49.322;7.218;2024-02-14T11:49:43;99184.91;;;14.43;100.00
18275;BME280;19470;49.322;7.218;2024-02-14T11:52:09;99191.13;;;14.21;100.00
18275;BME280;19470;49.322;7.218;2024-02-14T11:54:36;99190.72;;;14.07;100.00
18275;BME280;19470;49.322;7.218;2024-02-14T11:57:03;99190.09;;;14.00;100.00
18275;BME280;19470;49.322;7.218;2024-02-14T11:59:30;99183.44;;;14.57;99.84
18275;BME280;19470;49.322;7.218;2024-02-14T12:01:56;99178.56;;;14.86;99.61
18275;BME280;19470;49.322;7.218;2024-02-14T12:04:25;99189.44;;;14.74;99.22
18275;BME280;19470;49.322;7.218;2024-02-14T12:06:52;99184.50;;;14.56;100.00
18275;BME280;19470;49.322;7.218;2024-02-14T12:09:18;99183.88;;;14.81;98.65
18275;BME280;19470;49.322;7.218;2024-02-14T12:11:46;99178.72;;;14.37;100.00
18275;BME280;19470;49.322;7.218;2024-02-14T12:14:12;99179.31;;;14.44;100.00
18275;BME280;19470;49.322;7.218;2024-02-14T12:16:39;99174.41;;;14.63;100.00
18275;BME280;19470;49.322;7.218;2024-02-14T12:19:07;99175.47;;;14.62;100.00
18275;BME280;19470;49.322;7.218;2024-02-14T12:21:36;99174.50;;;14.73;100.00
18275;BME280;19470;49.322;7.218;2024-02-14T12:24:06;99173.91;;;14.66;100.00
18275;BME280;19470;49.322;7.218;2024-02-14T12:26:32;99168.47;;;14.51;100.00
18275;BME280;19470;49.322;7.218;2024-02-14T12:29:01;99172.28;;;13.52;100.00
18275;BME280;19470;49.322;7.218;2024-02-14T12:31:28;99165.38;;;14.32;100.00
18275;BME280;19470;49.322;7.218;2024-02-14T12:33:56;99156.94;;;14.77;100.00
18275;BME280;19470;49.322;7.218;2024-02-14T12:36:24;99151.31;;;14.42;100.00
18275;BME280;19470;49.322;7.218;2024-02-14T12:38:52;99145.66;;;14.65;100.00
18275;BME280;19470;49.322;7.218;2024-02-14T12:41:19;99149.31;;;14.54;100.00
18275;BME280;19470;49.322;7.218;2024-02-14T12:43:46;99143.03;;;14.70;100.00
18275;BME280;19470;49.322;7.218;2024-02-14T12:46:13;99146.09;;;14.52;100.00
18275;BME280;19470;49.322;7.218;2024-02-14T12:48:40;99144.56;;;14.61;100.00
18275;BME280;19470;49.322;7.218;2024-02-14T12:51:07;99142.75;;;14.72;100.00
18275;BME280;19470;49.322;7.218;2024-02-14T12:53:34;99139.72;;;14.58;100.00
18275;BME280;19470;49.322;7.218;2024-02-14T12:56:02;99141.38;;;14.64;100.00
18275;BME280;19470;49.322;7.218;2024-02-14T12:58:30;99137.44;;;14.77;100.00
18275;BME280;19470;49.322;7.218;2024-02-14T13:00:57;99129.97;;;14.69;100.00
18275;BME280;19470;49.322;7.218;2024-02-14T13:03:24;99137.81;;;14.96;100.00
18275;BME280;19470;49.322;7.218;2024-02-14T13:05:50;99129.47;;;14.40;100.00
18275;BME280;19470;49.322;7.218;2024-02-14T13:08:19;99125.38;;;15.06;100.00
18275;BME280;19470;49.322;7.218;2024-02-14T13:10:45;99132.94;;;14.77;100.00
18275;BME280;19470;49.322;7.218;2024-02-14T13:13:14;99135.06;;;14.75;100.00
18275;BME280;19470;49.322;7.218;2024-02-14T13:15:40;99138.22;;;15.20;100.00
18275;BME280;19470;49.322;7.218;2024-02-14T13:18:08;99140.16;;;15.34;100.00
18275;BME280;19470;49.322;7.218;2024-02-14T13:20:34;99131.78;;;15.83;97.19
18275;BME280;19470;49.322;7.218;2024-02-14T13:23:02;99124.59;;;15.11;98.86
18275;BME280;19470;49.322;7.218;2024-02-14T13:25:29;99125.44;;;15.27;100.00
18275;BME280;19470;49.322;7.218;2024-02-14T13:27:54;99133.06;;;15.03;100.00
18275;BME280;19470;49.322;7.218;2024-02-14T13:30:24;99132.28;;;15.70;98.49
18275;BME280;19470;49.322;7.218;2024-02-14T13:32:51;99132.44;;;15.43;100.00
18275;BME280;19470;49.322;7.218;2024-02-14T13:35:17;99135.69;;;15.55;100.00
18275;BME280;19470;49.322;7.218;2024-02-14T13:37:44;99138.16;;;15.67;99.51
18275;BME280;19470;49.322;7.218;2024-02-14T13:40:11;99135.78;;;15.13;100.00
18275;BME280;19470;49.322;7.218;2024-02-14T13:42:38;99123.13;;;15.56;100.00
18275;BME280;19470;49.322;7.218;2024-02-14T13:45:05;99132.19;;;15.50;100.00
18275;BME280;19470;49.322;7.218;2024-02-14T13:47:36;99129.66;;;16.06;97.59
18275;BME280;19470;49.322;7.218;2024-02-14T13:50:04;99133.28;;;15.54;100.00
18275;BME280;19470;49.322;7.218;2024-02-14T13:52:31;99131.19;;;15.66;100.00
18275;BME280;19470;49.322;7.218;2024-02-14T13:54:58;99130.38;;;15.66;100.00
18275;BME280;19470;49.322;7.218;2024-02-14T13:57:24;99130.97;;;15.93;98.07
18275;BME280;19470;49.322;7.218;2024-02-14T13:59:51;99134.16;;;15.90;97.56
18275;BME280;19470;49.322;7.218;2024-02-14T14:02:19;99120.56;;;16.02;98.40
18275;BME280;19470;49.322;7.218;2024-02-14T14:04:47;99117.25;;;14.86;100.00
18275;BME280;19470;49.322;7.218;2024-02-14T14:07:14;99127.38;;;15.47;100.00
18275;BME280;19470;49.322;7.218;2024-02-14T14:09:41;99125.72;;;15.25;100.00
18275;BME280;19470;49.322;7.218;2024-02-14T14:12:07;99113.84;;;15.74;100.00
18275;BME280;19470;49.322;7.218;2024-02-14T14:14:34;99120.00;;;15.79;100.00
18275;BME280;19470;49.322;7.218;2024-02-14T14:17:01;99109.88;;;15.87;100.00
18275;BME280;19470;49.322;7.218;2024-02-14T14:19:27;99114.16;;;15.82;100.00
18275;BME280;19470;49.322;7.218;2024-02-14T14:21:55;99105.22;;;15.41;100.00
18275;BME280;19470;49.322;7.218;2024-02-14T14:24:22;99099.72;;;15.83;100.00
18275;BME280;19470;49.322;7.218;2024-02-14T14:26:50;99103.47;;;16.13;100.00
18275;BME280;19470;49.322;7.218;2024-02-14T14:29:17;99099.19;;;15.87;100.00
18275;BME280;19470;49.322;7.218;2024-02-14T14:31:44;99107.38;;;15.54;100.00
18275;BME280;19470;49.322;7.218;2024-02-14T14:34:11;99109.88;;;16.07;100.00
18275;BME280;19470;49.322;7.218;2024-02-14T14:36:37;99116.25;;;15.75;100.00
18275;BME280;19470;49.322;7.218;2024-02-14T14:39:07;99126.44;;;15.83;100.00
18275;BME280;19470;49.322;7.218;2024-02-14T14:41:36;99118.28;;;15.48;100.00
18275;BME280;19470;49.322;7.218;2024-02-14T14:44:03;99122.44;;;15.81;100.00
18275;BME280;19470;49.322;7.218;2024-02-14T14:46:29;99125.81;;;15.61;100.00
18275;BME280;19470;49.322;7.218;2024-02-14T14:48:57;99122.16;;;15.98;100.00
18275;BME280;19470;49.322;7.218;2024-02-14T14:51:23;99127.22;;;15.89;100.00
18275;BME280;19470;49.322;7.218;2024-02-14T14:53:50;99127.22;;;15.84;100.00
18275;BME280;19470;49.322;7.218;2024-02-14T14:56:18;99113.97;;;15.31;100.00
18275;BME280;19470;49.322;7.218;2024-02-14T14:58:44;99114.66;;;15.69;100.00
18275;BME280;19470;49.322;7.218;2024-02-14T15:01:11;99120.56;;;15.76;100.00
18275;BME280;19470;49.322;7.218;2024-02-14T15:03:39;99115.59;;;15.38;100.00
18275;BME280;19470;49.322;7.218;2024-02-14T15:06:05;99118.88;;;15.55;100.00
18275;BME280;19470;49.322;7.218;2024-02-14T15:08:32;99128.13;;;15.27;100.00
18275;BME280;19470;49.322;7.218;2024-02-14T15:10:58;99129.13;;;15.99;100.00
18275;BME280;19470;49.322;7.218;2024-02-14T15:13:26;99128.47;;;15.56;100.00
18275;BME280;19470;49.322;7.218;2024-02-14T15:15:53;99136.19;;;15.52;100.00
18275;BME280;19470;49.322;7.218;2024-02-14T15:18:20;99130.47;;;16.06;100.00
18275;BME280;19470;49.322;7.218;2024-02-14T15:20:46;99136.88;;;15.95;100.00
18275;BME280;19470;49.322;7.218;2024-02-14T15:23:13;99133.38;;;15.84;100.00
18275;BME280;19470;49.322;7.218;2024-02-14T15:25:39;99123.09;;;15.41;100.00
18275;BME280;19470;49.322;7.218;2024-02-14T15:28:07;99133.34;;;15.74;100.00
18275;BME280;19470;49.322;7.218;2024-02-14T15:30:40;99131.63;;;15.48;100.00
18275;BME280;19470;49.322;7.218;2024-02-14T15:33:25;99120.19;;;14.85;100.00
18275;BME280;19470;49.322;7.218;2024-02-14T15:35:52;99126.91;;;15.65;100.00
18275;BME280;19470;49.322;7.218;2024-02-14T15:38:19;99132.84;;;15.88;100.00
18275;BME280;19470;49.322;7.218;2024-02-14T15:40:45;99122.28;;;15.35;100.00
18275;BME280;19470;49.322;7.218;2024-02-14T15:43:13;99126.94;;;15.70;100.00
18275;BME280;19470;49.322;7.218;2024-02-14T15:45:42;99124.72;;;15.52;100.00
18275;BME280;19470;49.322;7.218;2024-02-14T15:48:08;99128.06;;;16.00;100.00
18275;BME280;19470;49.322;7.218;2024-02-14T15:50:35;99126.97;;;15.86;100.00
18275;BME280;19470;49.322;7.218;2024-02-14T15:53:02;99125.63;;;15.83;100.00
18275;BME280;19470;49.322;7.218;2024-02-14T15:55:29;99121.09;;;15.83;100.00
18275;BME280;19470;49.322;7.218;2024-02-14T15:57:56;99120.81;;;15.85;100.00
18275;BME280;19470;49.322;7.218;2024-02-14T16:00:23;99117.38;;;16.10;100.00
18275;BME280;19470;49.322;7.218;2024-02-14T16:02:53;99122.44;;;16.12;100.00
18275;BME280;19470;49.322;7.218;2024-02-14T16:05:20;99113.78;;;15.53;100.00